createdAt,value
2017-10-15T00:00:09.025Z,30.10
2017-10-15T00:02:36.490Z,24.90
2017-10-15T00:05:04.701Z,26.50
2017-10-15T00:07:32.168Z,22.83
2017-10-15T00:10:00.384Z,27.60
2017-10-15T00:12:27.853Z,24.67
2017-10-15T00:14:55.320Z,23.83
2017-10-15T00:17:22.768Z,25.40
2017-10-15T00:19:50.216Z,27.90
2017-10-15T00:22:17.688Z,26.90
2017-10-15T00:24:45.138Z,24.57
2017-10-15T00:27:12.624Z,22.43
2017-10-15T00:29:40.068Z,25.60
2017-10-15T00:32:07.508Z,24.00
2017-10-15T00:34:34.965Z,23.00
2017-10-15T00:37:02.413Z,24.33
2017-10-15T00:39:29.873Z,27.90
2017-10-15T00:41:57.350Z,23.57
2017-10-15T00:44:24.792Z,24.27
2017-10-15T00:46:52.245Z,24.37
2017-10-15T00:49:19.747Z,26.53
2017-10-15T00:51:47.185Z,23.33
2017-10-15T00:54:14.928Z,25.70
2017-10-15T00:56:42.384Z,22.33
2017-10-15T00:59:09.837Z,25.73
2017-10-15T01:01:37.300Z,23.30
2017-10-15T01:04:04.747Z,20.17
2017-10-15T01:06:32.211Z,19.13
2017-10-15T01:08:59.659Z,18.33
2017-10-15T01:11:27.112Z,21.27
2017-10-15T01:13:54.588Z,22.17
2017-10-15T01:16:22.024Z,19.60
2017-10-15T01:18:49.468Z,20.70
2017-10-15T01:27:00.395Z,21.50
2017-10-15T01:29:28.073Z,19.43
2017-10-15T01:31:55.523Z,19.93
2017-10-15T01:34:22.994Z,20.93
2017-10-15T01:36:50.428Z,23.50
2017-10-15T01:39:17.881Z,20.37
2017-10-15T01:41:45.386Z,20.30
2017-10-15T01:44:12.834Z,21.07
2017-10-15T01:46:40.283Z,21.67
2017-10-15T01:49:07.762Z,21.50
2017-10-15T01:51:35.210Z,19.17
2017-10-15T01:54:02.651Z,24.87
2017-10-15T01:56:30.417Z,22.50
2017-10-15T01:58:57.860Z,23.20
2017-10-15T02:01:25.310Z,24.10
2017-10-15T02:03:52.800Z,23.20
2017-10-15T02:06:20.250Z,22.37
2017-10-15T02:08:47.705Z,23.13
2017-10-15T02:11:15.468Z,23.33
2017-10-15T02:13:42.922Z,24.30
2017-10-15T02:16:10.382Z,25.23
2017-10-15T02:18:38.149Z,23.60
2017-10-15T02:21:05.598Z,22.07
2017-10-15T02:23:33.038Z,22.00
2017-10-15T02:26:01.276Z,22.57
2017-10-15T02:28:28.798Z,23.40
2017-10-15T02:30:56.232Z,22.50
2017-10-15T02:33:24.486Z,24.77
2017-10-15T02:35:51.920Z,22.93
2017-10-15T02:38:19.374Z,21.30
2017-10-15T02:40:46.856Z,24.83
2017-10-15T02:43:14.346Z,22.07
2017-10-15T02:45:41.796Z,22.73
2017-10-15T02:48:10.039Z,21.10
2017-10-15T02:50:37.490Z,20.77
2017-10-15T02:53:04.939Z,23.47
2017-10-15T02:55:32.404Z,23.33
2017-10-15T02:57:59.847Z,22.00
2017-10-15T03:00:27.287Z,22.53
2017-10-15T03:02:54.778Z,22.57
2017-10-15T03:05:22.229Z,21.63
2017-10-15T03:07:49.672Z,22.50
2017-10-15T03:10:17.148Z,22.77
2017-10-15T03:12:44.604Z,21.20
2017-10-15T03:15:12.050Z,23.43
2017-10-15T03:17:39.519Z,21.17
2017-10-15T03:20:06.978Z,19.87
2017-10-15T03:22:34.422Z,21.57
2017-10-15T03:25:01.903Z,21.47
2017-10-15T03:27:29.358Z,19.77
2017-10-15T03:29:56.797Z,25.70
2017-10-15T03:32:24.506Z,23.53
2017-10-15T03:34:52.728Z,21.53
2017-10-15T03:37:20.159Z,22.60
2017-10-15T03:39:48.413Z,25.50
2017-10-15T03:42:16.624Z,22.23
2017-10-15T03:44:44.075Z,22.23
2017-10-15T03:47:11.544Z,21.70
2017-10-15T03:49:38.994Z,21.13
2017-10-15T03:52:06.432Z,25.33
2017-10-15T03:54:33.922Z,24.93
2017-10-15T03:57:01.370Z,25.33
2017-10-15T03:59:28.812Z,23.70
2017-10-15T04:01:56.285Z,26.60
2017-10-15T04:04:23.728Z,23.53
2017-10-15T04:06:51.177Z,23.83
2017-10-15T04:09:18.652Z,22.60
2017-10-15T04:11:46.966Z,22.30
2017-10-15T04:14:14.701Z,22.40
2017-10-15T04:16:42.168Z,23.50
2017-10-15T04:19:09.629Z,26.80
2017-10-15T04:21:37.081Z,27.13
2017-10-15T04:24:04.552Z,26.37
2017-10-15T04:26:32.298Z,28.00
2017-10-15T04:28:59.736Z,27.07
2017-10-15T04:31:27.219Z,28.37
2017-10-15T04:33:54.668Z,27.37
2017-10-15T04:36:22.103Z,27.83
2017-10-15T04:38:49.589Z,30.93
2017-10-15T04:41:17.042Z,28.73
2017-10-15T04:43:44.495Z,28.93
2017-10-15T04:46:11.969Z,29.00
2017-10-15T04:48:40.186Z,24.17
2017-10-15T04:51:07.651Z,29.63
2017-10-15T04:53:35.354Z,32.33
2017-10-15T04:56:02.809Z,33.03
2017-10-15T04:58:30.243Z,28.30
2017-10-15T05:00:57.732Z,27.87
2017-10-15T05:03:25.172Z,28.50
2017-10-15T05:05:52.619Z,29.87
2017-10-15T05:08:20.098Z,27.27
2017-10-15T05:10:47.862Z,32.53
2017-10-15T05:13:15.304Z,29.97
2017-10-15T05:15:42.784Z,30.40
2017-10-15T05:18:10.237Z,29.33
2017-10-15T05:20:37.690Z,32.80
2017-10-15T05:23:05.173Z,30.30
2017-10-15T05:25:32.621Z,32.97
2017-10-15T05:28:00.070Z,24.60
2017-10-15T05:30:27.550Z,25.67
2017-10-15T05:32:55.001Z,29.47
2017-10-15T05:35:22.448Z,24.03
2017-10-15T05:37:49.926Z,26.77
2017-10-15T05:40:17.364Z,27.53
2017-10-15T05:42:44.816Z,24.03
2017-10-15T05:45:12.284Z,27.10
2017-10-15T05:47:39.729Z,28.20
2017-10-15T05:50:07.180Z,30.07
2017-10-15T05:52:34.671Z,26.53
2017-10-15T05:55:02.116Z,23.80
2017-10-15T05:57:29.566Z,27.90
2017-10-15T05:59:57.041Z,22.33
2017-10-15T06:02:24.489Z,24.37
2017-10-15T06:04:51.937Z,25.70
2017-10-15T06:07:19.416Z,24.00
2017-10-15T06:09:47.357Z,30.63
2017-10-15T06:12:15.574Z,25.30
2017-10-15T06:14:43.058Z,25.90
2017-10-15T06:17:11.278Z,24.37
2017-10-15T06:19:38.721Z,22.87
2017-10-15T06:22:06.202Z,26.57
2017-10-15T06:24:33.644Z,27.00
2017-10-15T06:27:01.093Z,25.50
2017-10-15T06:29:28.576Z,26.10
2017-10-15T06:31:56.333Z,24.30
2017-10-15T06:34:23.780Z,23.23
2017-10-15T06:36:51.256Z,25.03
2017-10-15T06:39:18.700Z,27.87
2017-10-15T06:41:46.140Z,29.87
2017-10-15T06:44:13.626Z,25.17
2017-10-15T06:46:41.074Z,30.77
2017-10-15T06:49:08.511Z,30.10
2017-10-15T06:51:35.985Z,30.80
2017-10-15T06:54:03.451Z,27.67
2017-10-15T06:56:30.884Z,25.00
2017-10-15T06:58:58.366Z,27.90
2017-10-15T07:01:25.818Z,25.83
2017-10-15T07:03:53.262Z,24.87
2017-10-15T07:06:20.772Z,25.87
2017-10-15T07:08:48.208Z,28.30
2017-10-15T07:11:15.640Z,32.27
2017-10-15T07:13:43.121Z,30.03
2017-10-15T07:16:10.565Z,30.37
2017-10-15T07:18:38.021Z,27.63
2017-10-15T07:21:05.503Z,31.03
2017-10-15T07:23:32.936Z,34.43
2017-10-15T07:26:00.393Z,37.80
2017-10-15T07:28:27.870Z,36.63
2017-10-15T07:30:55.316Z,38.53
2017-10-15T07:33:22.761Z,36.37
2017-10-15T07:35:50.252Z,37.27
2017-10-15T07:38:17.702Z,41.37
2017-10-15T07:40:45.153Z,35.03
2017-10-15T07:56:01.540Z,39.80
2017-10-15T07:58:29.013Z,36.17
2017-10-15T08:00:56.448Z,41.77
2017-10-15T08:03:23.921Z,39.50
2017-10-15T08:05:51.373Z,33.90
2017-10-15T08:08:19.060Z,33.57
2017-10-15T08:10:46.533Z,33.50
2017-10-15T08:13:14.750Z,39.13
2017-10-15T08:15:42.197Z,38.30
2017-10-15T08:18:09.984Z,42.23
2017-10-15T08:20:37.413Z,38.17
2017-10-15T08:23:04.873Z,38.80
2017-10-15T08:25:32.360Z,37.90
2017-10-15T08:28:00.107Z,40.87
2017-10-15T08:30:28.320Z,45.07
2017-10-15T08:32:55.794Z,34.43
2017-10-15T08:35:23.260Z,37.00
2017-10-15T08:37:51.477Z,36.97
2017-10-15T08:40:19.238Z,30.50
2017-10-15T08:42:46.690Z,37.90
2017-10-15T08:45:14.146Z,35.53
2017-10-15T08:47:41.626Z,38.70
2017-10-15T08:50:09.082Z,42.60
2017-10-15T08:52:36.544Z,44.30
2017-10-15T08:55:04.025Z,40.13
2017-10-15T08:57:31.482Z,44.00
2017-10-15T08:59:58.920Z,48.27
2017-10-15T09:02:26.459Z,46.43
2017-10-15T09:04:53.921Z,38.03
2017-10-15T09:07:21.364Z,50.60
2017-10-15T09:09:48.832Z,48.30
2017-10-15T09:12:16.286Z,41.03
2017-10-15T09:14:44.899Z,47.47
2017-10-15T09:17:12.364Z,43.30
2017-10-15T09:19:39.803Z,38.47
2017-10-15T09:22:07.248Z,37.43
2017-10-15T09:24:35.014Z,37.17
2017-10-15T09:27:02.470Z,30.13
2017-10-15T09:29:29.926Z,36.20
2017-10-15T09:31:57.403Z,33.47
2017-10-15T09:34:24.862Z,30.53
2017-10-15T09:36:52.304Z,40.10
2017-10-15T09:39:19.786Z,40.97
2017-10-15T09:41:47.238Z,35.47
2017-10-15T09:44:14.698Z,32.07
2017-10-15T09:46:42.169Z,34.50
2017-10-15T09:49:09.625Z,35.57
2017-10-15T09:51:37.082Z,29.07
2017-10-15T09:54:04.575Z,27.80
2017-10-15T09:56:32.780Z,30.77
2017-10-15T09:59:00.238Z,29.83
2017-10-15T10:01:27.712Z,32.37
2017-10-15T10:03:55.166Z,32.50
2017-10-15T10:06:22.610Z,28.10
2017-10-15T10:08:50.087Z,28.33
2017-10-15T10:11:17.536Z,28.83
2017-10-15T10:13:45.086Z,29.97
2017-10-15T10:16:12.605Z,33.17
2017-10-15T10:18:40.050Z,30.10
2017-10-15T10:21:07.502Z,34.00
2017-10-15T10:23:34.986Z,26.03
2017-10-15T10:26:03.196Z,30.77
2017-10-15T10:28:30.759Z,28.53
2017-10-15T10:30:58.228Z,38.80
2017-10-15T10:33:25.676Z,23.03
2017-10-15T10:35:53.121Z,27.97
2017-10-15T10:38:20.611Z,25.70
2017-10-15T10:40:48.066Z,28.17
2017-10-15T10:43:15.537Z,28.23
2017-10-15T10:45:43.065Z,24.70
2017-10-15T10:48:10.516Z,29.53
2017-10-15T10:50:37.978Z,25.60
2017-10-15T10:53:05.453Z,27.47
2017-10-15T10:55:32.909Z,22.60
2017-10-15T10:58:00.360Z,25.57
2017-10-15T11:00:27.831Z,29.33
2017-10-15T11:02:55.281Z,30.53
2017-10-15T11:05:22.729Z,22.93
2017-10-15T11:07:50.204Z,24.30
2017-10-15T11:10:17.671Z,25.27
2017-10-15T11:12:45.114Z,21.50
2017-10-15T11:15:12.646Z,22.47
2017-10-15T11:17:40.080Z,22.57
2017-10-15T11:20:08.595Z,22.90
2017-10-15T11:22:36.072Z,20.80
2017-10-15T11:25:03.508Z,24.50
2017-10-15T11:27:30.984Z,17.67
2017-10-15T11:29:59.223Z,20.80
2017-10-15T11:32:27.446Z,24.83
2017-10-15T11:34:54.887Z,21.43
2017-10-15T11:37:22.413Z,22.33
2017-10-15T11:39:50.614Z,21.50
2017-10-15T11:42:18.090Z,21.43
2017-10-15T11:44:46.330Z,18.13
2017-10-15T11:47:13.773Z,21.50
2017-10-15T11:49:41.982Z,23.73
2017-10-15T11:52:09.455Z,21.43
2017-10-15T11:54:36.905Z,23.00
2017-10-15T11:57:04.356Z,20.10
2017-10-15T11:59:31.865Z,19.67
2017-10-15T12:01:59.300Z,17.90
2017-10-15T12:04:26.748Z,24.07
2017-10-15T12:06:54.238Z,19.70
2017-10-15T12:09:21.695Z,23.80
2017-10-15T12:11:49.927Z,20.20
2017-10-15T12:14:17.678Z,23.60
2017-10-15T12:16:45.129Z,22.97
2017-10-15T12:19:12.642Z,23.87
2017-10-15T12:21:40.112Z,21.03
2017-10-15T12:24:08.334Z,27.17
2017-10-15T12:26:35.887Z,20.83
2017-10-15T12:29:03.361Z,22.90
2017-10-15T12:31:31.107Z,19.90
2017-10-15T12:33:58.556Z,18.70
2017-10-15T12:36:26.043Z,21.67
2017-10-15T12:38:53.496Z,24.83
2017-10-15T12:41:20.987Z,18.93
2017-10-15T12:43:48.469Z,21.17
2017-10-15T12:46:16.702Z,22.10
2017-10-15T12:48:44.140Z,20.23
2017-10-15T12:51:11.641Z,20.80
2017-10-15T12:53:39.095Z,26.43
2017-10-15T12:56:07.064Z,22.73
2017-10-15T12:58:34.564Z,21.97
2017-10-15T13:01:02.034Z,21.30
2017-10-15T13:03:29.464Z,18.83
2017-10-15T13:05:57.712Z,23.23
2017-10-15T13:08:25.163Z,19.23
2017-10-15T13:10:52.626Z,22.10
2017-10-15T13:13:20.104Z,18.43
2017-10-15T13:15:48.428Z,21.27
2017-10-15T13:18:15.877Z,14.57
2017-10-15T13:20:43.360Z,15.37
2017-10-15T13:23:10.804Z,14.83
2017-10-15T13:25:38.268Z,14.90
2017-10-15T13:28:05.770Z,15.07
2017-10-15T13:30:33.988Z,18.30
2017-10-15T13:33:01.446Z,15.77
2017-10-15T13:35:28.938Z,16.30
2017-10-15T13:37:57.152Z,11.73
2017-10-15T13:40:24.605Z,12.73
2017-10-15T13:42:52.861Z,13.97
2017-10-15T13:45:20.317Z,13.83
2017-10-15T13:47:47.761Z,13.30
2017-10-15T13:50:15.249Z,12.47
2017-10-15T13:52:43.468Z,12.80
2017-10-15T13:55:10.912Z,13.47
2017-10-15T13:57:38.409Z,12.60
2017-10-15T14:00:06.620Z,15.13
2017-10-15T14:02:34.849Z,10.53
2017-10-15T14:05:02.337Z,10.57
2017-10-15T14:07:29.784Z,12.87
2017-10-15T14:09:57.262Z,12.93
2017-10-15T14:12:24.719Z,14.27
2017-10-15T14:14:52.960Z,12.33
2017-10-15T14:17:20.428Z,12.07
2017-10-15T14:19:47.962Z,11.20
2017-10-15T14:22:15.410Z,10.30
2017-10-15T14:24:42.862Z,11.23
2017-10-15T14:27:10.351Z,11.70
2017-10-15T14:29:37.797Z,10.17
2017-10-15T14:32:05.236Z,12.00
2017-10-15T14:34:32.737Z,12.67
2017-10-15T14:37:00.189Z,8.37
2017-10-15T14:39:27.644Z,16.23
2017-10-15T14:41:55.127Z,9.03
2017-10-15T14:44:22.577Z,10.40
2017-10-15T14:46:50.042Z,10.83
2017-10-15T14:49:17.514Z,9.43
2017-10-15T14:51:45.720Z,9.07
2017-10-15T14:54:13.168Z,11.00
2017-10-15T14:56:40.654Z,8.17
2017-10-15T14:59:08.098Z,6.47
2017-10-15T15:01:35.856Z,7.23
2017-10-15T15:04:03.330Z,7.13
2017-10-15T15:06:30.772Z,11.47
2017-10-15T15:08:59.354Z,8.47
2017-10-15T15:11:26.820Z,8.27
2017-10-15T15:13:54.256Z,8.07
2017-10-15T15:16:21.708Z,9.60
2017-10-15T15:18:49.193Z,11.97
2017-10-15T15:21:16.646Z,10.23
2017-10-15T15:23:44.108Z,9.60
2017-10-15T15:26:11.591Z,15.53
2017-10-15T15:28:39.036Z,11.73
2017-10-15T15:31:06.501Z,10.93
2017-10-15T15:33:33.976Z,14.27
2017-10-15T15:36:01.423Z,12.07
2017-10-15T15:38:28.877Z,12.63
2017-10-15T15:40:56.357Z,13.40
2017-10-15T15:43:23.818Z,10.40
2017-10-15T15:45:51.271Z,10.17
2017-10-15T15:48:18.760Z,12.90
2017-10-15T15:50:46.214Z,11.43
2017-10-15T15:53:13.670Z,12.33
2017-10-15T15:55:41.938Z,17.73
2017-10-15T15:58:09.370Z,12.30
2017-10-15T16:00:36.823Z,15.30
2017-10-15T16:03:04.307Z,13.97
2017-10-15T16:05:31.752Z,12.10
2017-10-15T16:07:59.210Z,14.93
2017-10-15T16:10:26.689Z,13.23
2017-10-15T16:12:54.909Z,14.63
2017-10-15T16:15:22.450Z,15.80
2017-10-15T16:17:49.908Z,13.67
2017-10-15T16:20:17.356Z,15.80
2017-10-15T16:22:44.806Z,15.07
2017-10-15T16:25:12.297Z,15.27
2017-10-15T16:27:39.769Z,15.93
2017-10-15T16:30:07.222Z,14.80
2017-10-15T16:32:34.699Z,14.90
2017-10-15T16:35:02.213Z,16.83
2017-10-15T16:37:29.694Z,15.17
2017-10-15T16:39:57.174Z,15.70
2017-10-15T16:42:24.616Z,31.40
2017-10-15T16:44:52.066Z,18.93
2017-10-15T16:47:19.527Z,14.93
2017-10-15T16:49:46.972Z,22.47
2017-10-15T16:52:14.428Z,24.83
2017-10-15T16:54:41.896Z,16.57
2017-10-15T16:57:09.354Z,22.57
2017-10-15T16:59:36.814Z,17.00
2017-10-15T17:02:04.294Z,30.17
2017-10-15T17:04:31.732Z,18.77
2017-10-15T17:06:59.946Z,15.60
2017-10-15T17:09:28.197Z,18.77
2017-10-15T17:11:55.639Z,24.20
2017-10-15T17:14:23.090Z,25.87
2017-10-15T17:16:50.574Z,20.23
2017-10-15T17:19:18.248Z,18.10
2017-10-15T17:21:45.698Z,19.90
2017-10-15T17:24:13.303Z,16.17
2017-10-15T17:26:40.751Z,18.13
2017-10-15T17:29:08.961Z,13.63
2017-10-15T17:31:36.440Z,14.80
2017-10-15T17:34:03.889Z,18.00
2017-10-15T17:36:31.417Z,16.80
2017-10-15T17:38:58.886Z,15.90
2017-10-15T17:41:26.338Z,21.00
2017-10-15T17:43:53.784Z,21.37
2017-10-15T17:46:21.255Z,17.17
2017-10-15T17:48:48.718Z,20.80
2017-10-15T17:51:16.168Z,20.90
2017-10-15T17:53:43.648Z,18.10
2017-10-15T17:56:11.093Z,16.37
2017-10-15T17:58:38.554Z,17.53
2017-10-15T18:01:06.024Z,19.57
2017-10-15T18:03:33.472Z,21.33
2017-10-15T18:06:00.930Z,16.83
2017-10-15T18:08:28.425Z,18.50
2017-10-15T18:10:55.860Z,16.43
2017-10-15T18:13:23.304Z,18.33
2017-10-15T18:15:51.549Z,17.90
2017-10-15T18:18:18.993Z,19.33
2017-10-15T18:20:47.196Z,25.73
2017-10-15T18:23:14.678Z,20.87
2017-10-15T18:25:42.119Z,19.73
2017-10-15T18:28:09.568Z,16.30
2017-10-15T18:30:37.052Z,19.53
2017-10-15T18:33:04.514Z,20.00
2017-10-15T18:35:31.950Z,21.80
2017-10-15T18:37:59.441Z,22.90
2017-10-15T18:40:26.894Z,19.30
2017-10-15T18:42:54.354Z,22.57
2017-10-15T18:45:21.820Z,16.70
2017-10-15T18:47:49.498Z,20.70
2017-10-15T18:50:17.700Z,19.77
2017-10-15T18:52:45.184Z,21.47
2017-10-15T18:55:12.632Z,20.27
2017-10-15T18:57:40.068Z,27.87
2017-10-15T19:00:07.574Z,27.57
2017-10-15T19:02:35.021Z,21.77
2017-10-15T19:05:02.464Z,21.87
2017-10-15T19:07:29.950Z,22.03
2017-10-15T19:09:57.410Z,23.20
2017-10-15T19:12:24.856Z,24.73
2017-10-15T19:14:52.360Z,20.60
2017-10-15T19:17:19.808Z,21.87
2017-10-15T19:19:48.689Z,25.10
2017-10-15T19:22:16.933Z,21.83
2017-10-15T19:24:44.391Z,21.17
2017-10-15T19:27:11.849Z,21.80
2017-10-15T19:29:39.321Z,24.97
2017-10-15T19:32:07.051Z,22.60
2017-10-15T19:34:34.507Z,25.83
2017-10-15T19:37:01.992Z,24.47
2017-10-15T19:39:29.445Z,27.17
2017-10-15T19:41:57.656Z,21.90
2017-10-15T19:44:25.906Z,24.63
2017-10-15T19:46:53.369Z,22.63
2017-10-15T19:49:20.828Z,25.20
2017-10-15T19:51:48.305Z,25.37
2017-10-15T19:54:16.536Z,21.97
2017-10-15T19:56:43.980Z,21.60
2017-10-15T19:59:11.459Z,22.77
2017-10-15T20:01:39.134Z,22.50
2017-10-15T20:04:06.578Z,24.73
2017-10-15T20:06:34.062Z,24.20
2017-10-15T20:09:01.548Z,24.00
2017-10-15T20:11:29.748Z,23.20
2017-10-15T20:13:57.236Z,24.23
2017-10-15T20:16:24.688Z,23.87
2017-10-15T20:18:52.424Z,26.03
2017-10-15T20:21:19.910Z,24.93
2017-10-15T20:23:47.361Z,24.07
2017-10-15T20:26:14.810Z,20.97
2017-10-15T20:28:42.309Z,24.50
2017-10-15T20:31:09.762Z,23.60
2017-10-15T20:33:37.216Z,21.23
2017-10-15T20:36:04.693Z,25.60
2017-10-15T20:38:32.926Z,21.40
2017-10-15T20:41:00.361Z,23.07
2017-10-15T20:43:27.844Z,23.90
2017-10-15T20:45:55.283Z,21.77
2017-10-15T20:48:22.753Z,19.57
2017-10-15T20:50:50.229Z,20.17
2017-10-15T20:53:17.710Z,20.30
2017-10-15T20:55:45.161Z,20.00
2017-10-15T20:58:12.632Z,19.73
2017-10-15T21:00:41.154Z,19.33
2017-10-15T21:03:08.606Z,21.20
2017-10-15T21:05:36.095Z,21.97
2017-10-15T21:08:03.546Z,18.93
2017-10-15T21:10:31.001Z,21.77
2017-10-15T21:12:58.490Z,21.83
2017-10-15T21:15:26.823Z,22.30
2017-10-15T21:17:54.278Z,19.17
2017-10-15T21:20:21.744Z,17.77
2017-10-15T21:22:49.194Z,16.67
2017-10-15T21:25:16.636Z,18.57
2017-10-15T21:27:44.414Z,18.37
2017-10-15T21:30:11.870Z,20.67
2017-10-15T21:32:39.317Z,18.83
2017-10-15T21:35:06.796Z,17.77
2017-10-15T21:37:34.240Z,19.03
2017-10-15T21:40:01.684Z,20.80
2017-10-15T21:42:29.182Z,18.07
2017-10-15T21:44:56.924Z,17.37
2017-10-15T21:47:24.373Z,18.80
2017-10-15T21:49:51.854Z,18.87
2017-10-15T21:52:19.305Z,18.60
2017-10-15T21:54:46.748Z,18.57
2017-10-15T21:57:14.233Z,14.73
2017-10-15T21:59:41.682Z,14.57
2017-10-15T22:02:09.124Z,15.67
2017-10-15T22:04:36.605Z,19.70
2017-10-15T22:07:04.049Z,14.67
2017-10-15T22:09:31.502Z,16.40
2017-10-15T22:11:58.989Z,16.60
2017-10-15T22:14:26.429Z,16.13
2017-10-15T22:16:53.882Z,14.90
2017-10-15T22:19:21.348Z,15.60
2017-10-15T22:21:54.547Z,13.93
2017-10-15T22:24:22.026Z,11.80
2017-10-15T22:26:49.478Z,17.03
2017-10-15T22:29:16.924Z,14.40
2017-10-15T22:31:44.405Z,12.70
2017-10-15T22:34:11.845Z,15.57
2017-10-15T22:36:39.289Z,12.67
2017-10-15T22:39:06.770Z,14.60
2017-10-15T22:41:34.216Z,15.33
2017-10-15T22:44:01.658Z,15.23
2017-10-15T22:46:29.132Z,14.80
2017-10-15T22:48:56.583Z,14.07
2017-10-15T22:51:24.024Z,14.53
2017-10-15T22:53:52.486Z,14.77
2017-10-15T22:56:20.157Z,12.90
2017-10-15T22:58:47.609Z,15.97
2017-10-15T23:01:15.076Z,11.50
2017-10-15T23:03:42.544Z,14.20
2017-10-15T23:06:09.979Z,13.63
2017-10-15T23:08:38.266Z,13.33
2017-10-15T23:11:05.719Z,13.30
2017-10-15T23:13:33.177Z,12.93
2017-10-15T23:16:00.653Z,13.07
2017-10-15T23:18:28.104Z,12.57
2017-10-15T23:20:55.544Z,11.50
2017-10-15T23:23:23.017Z,14.70
2017-10-15T23:25:50.470Z,15.87
2017-10-15T23:28:17.908Z,16.20
2017-10-15T23:30:45.380Z,13.70
2017-10-15T23:33:12.821Z,18.10
2017-10-15T23:35:40.264Z,14.70
2017-10-15T23:38:08.531Z,15.47
2017-10-15T23:40:35.978Z,15.00
2017-10-15T23:43:03.416Z,14.30
2017-10-15T23:45:30.902Z,17.07
2017-10-15T23:47:58.345Z,13.13
2017-10-15T23:50:25.802Z,14.53
2017-10-15T23:52:53.290Z,12.90
2017-10-15T23:55:21.497Z,14.17
2017-10-15T23:57:48.939Z,18.73
